Eldred, New York
Current Conditions -  °F | °C
As of 6:15 PM on Wednesday 22 Oct 2014 (Local Time) from KMSV Reporting Station
Overcast Overcast  
Wind Chill: 43°   Ceiling: 3700
Heat Index: 48°   Visibility: 10mi
Dew Point: 46°   Wind: 12mph
Humidity: 93%   Direction: 350°N
Pressure: 29.93"   Gusts: NA
Location:  41.53°N, 74.88°W
Report Text: KMSV 222215Z AUTO 35010KT 10SM OVC037 09/08 A2993 RMK AO1 P0001
Loading
Personal Weather Stations






























Interactive Weather Map
Tropical Storm Tracking
New forecast layout! Learn more

10-Day Weather Forecast

Advertisements
Track Severe Weather on mobile